Time;durP1;ratioP1;P1;durP2;ratioP2;P2;SDS_P1;SDS_P2;PMS_P1;PMS_P2;Temp;Humidity;BMP_temperature;BMP_pressure;BME280_temperature;BME280_humidity;BME280_pressure;Samples;Min_cycle;Max_cycle;Signal;HPM_P1;HPM_P2
2023/01/02 00:00:54;;;;;;;6.80;4.53;;;12.90;99.90;;;;;;5116783;28;20173;-51
2023/01/02 00:03:20;;;;;;;13.10;4.90;;;12.90;99.90;;;;;;5116747;28;20173;-53
2023/01/02 00:05:45;;;;;;;8.63;4.60;;;12.90;99.90;;;;;;5116653;28;20261;-53
2023/01/02 00:08:11;;;;;;;10.82;4.82;;;13.00;99.90;;;;;;5116610;28;20534;-51
2023/01/02 00:10:37;;;;;;;10.50;4.63;;;12.90;99.90;;;;;;5116660;27;20174;-52
2023/01/02 00:13:02;;;;;;;7.20;4.63;;;12.90;99.90;;;;;;5116679;28;20178;-54
2023/01/02 00:15:28;;;;;;;7.03;4.53;;;13.00;99.90;;;;;;5115226;28;20718;-53
2023/01/02 00:17:57;;;;;;;9.40;4.65;;;13.00;99.90;;;;;;5116422;28;20169;-51
2023/01/02 00:20:23;;;;;;;8.70;4.30;;;13.00;99.90;;;;;;5115360;28;20177;-53
2023/01/02 00:22:48;;;;;;;8.23;4.70;;;13.00;99.90;;;;;;5116585;28;20703;-53
2023/01/02 00:25:14;;;;;;;6.28;4.57;;;13.00;99.90;;;;;;5116447;28;20173;-54
2023/01/02 00:27:40;;;;;;;7.57;4.25;;;13.00;99.90;;;;;;5116376;28;20653;-52
2023/01/02 00:30:06;;;;;;;8.82;4.53;;;12.90;99.90;;;;;;5116272;28;20744;-53
2023/01/02 00:32:32;;;;;;;8.27;4.43;;;12.90;99.90;;;;;;5114862;28;20555;-54
2023/01/02 00:35:00;;;;;;;8.07;4.53;;;13.00;99.90;;;;;;5116048;28;20173;-52
2023/01/02 00:37:26;;;;;;;10.07;4.80;;;13.00;99.90;;;;;;5116287;28;20173;-53
2023/01/02 00:39:52;;;;;;;8.07;4.32;;;13.00;99.90;;;;;;5114928;28;20701;-54
2023/01/02 00:42:17;;;;;;;11.00;4.43;;;13.10;99.90;;;;;;5115881;28;20662;-52
2023/01/02 00:44:43;;;;;;;5.60;3.85;;;13.10;99.90;;;;;;5116014;28;20193;-53
2023/01/02 00:47:08;;;;;;;7.88;4.50;;;13.00;99.90;;;;;;5115952;28;20196;-53
2023/01/02 00:49:34;;;;;;;9.18;4.60;;;13.00;99.90;;;;;;5115801;28;20234;-54
2023/01/02 00:52:00;;;;;;;8.32;4.57;;;13.10;99.90;;;;;;5114867;28;20269;-54
2023/01/02 00:54:26;;;;;;;8.10;3.83;;;13.00;99.90;;;;;;5115879;28;20180;-53
2023/01/02 00:56:52;;;;;;;9.02;4.18;;;13.10;99.90;;;;;;5115829;28;20177;-53
2023/01/02 00:59:17;;;;;;;8.68;4.13;;;13.20;99.90;;;;;;5115648;28;20292;-51
2023/01/02 01:01:43;;;;;;;8.60;4.38;;;13.20;99.90;;;;;;5114459;28;20212;-51
2023/01/02 01:04:09;;;;;;;6.85;3.85;;;13.20;99.90;;;;;;5115768;28;20207;-51
2023/01/02 01:06:34;;;;;;;8.82;3.88;;;13.20;99.90;;;;;;5115699;28;20230;-54
2023/01/02 01:09:00;;;;;;;8.32;3.83;;;13.20;99.90;;;;;;5115648;28;20185;-54
2023/01/02 01:11:26;;;;;;;6.72;3.85;;;13.20;99.90;;;;;;5115460;28;20580;-53
2023/01/02 01:13:51;;;;;;;8.07;3.97;;;13.10;99.90;;;;;;5115486;28;20168;-52
2023/01/02 01:16:18;;;;;;;8.55;4.22;;;13.10;99.90;;;;;;5115353;28;20685;-54
2023/01/02 01:18:45;;;;;;;10.07;3.75;;;13.10;99.90;;;;;;5115073;28;20204;-53
2023/01/02 01:21:12;;;;;;;10.48;3.90;;;13.10;99.90;;;;;;5115445;28;20181;-51
2023/01/02 01:23:38;;;;;;;8.55;4.20;;;13.10;99.90;;;;;;5115165;28;20204;-51
2023/01/02 01:26:07;;;;;;;8.02;3.97;;;13.10;99.90;;;;;;5115240;28;20200;-53
2023/01/02 01:28:36;;;;;;;8.63;3.97;;;13.10;99.90;;;;;;5115084;28;20234;-54
2023/01/02 01:31:10;;;;;;;7.72;4.22;;;13.10;99.90;;;;;;5115042;28;20319;-53
2023/01/02 01:33:36;;;;;;;9.02;4.05;;;13.10;99.90;;;;;;5114878;28;20165;-51
2023/01/02 01:36:23;;;;;;;7.47;3.83;;;13.10;99.90;;;;;;5115069;28;20198;-53
2023/01/02 01:38:49;;;;;;;12.30;4.47;;;13.10;99.90;;;;;;5114827;28;20287;-53
2023/01/02 01:41:24;;;;;;;9.93;4.13;;;13.10;99.90;;;;;;5115018;28;20318;-53
2023/01/02 01:43:55;;;;;;;9.50;4.43;;;13.10;99.90;;;;;;5114836;28;20200;-53
2023/01/02 01:46:45;;;;;;;10.48;3.95;;;13.10;99.90;;;;;;5114928;28;20165;-50
2023/01/02 01:49:23;;;;;;;11.95;4.53;;;13.10;99.90;;;;;;5114623;28;20161;-54
2023/01/02 01:52:02;;;;;;;9.38;3.92;;;13.00;99.90;;;;;;5114657;28;20251;-54
2023/01/02 01:54:34;;;;;;;7.45;4.50;;;13.00;99.90;;;;;;5115079;28;20664;-52
2023/01/02 01:57:12;;;;;;;10.25;4.10;;;13.10;99.90;;;;;;5113520;28;20641;-53
2023/01/02 01:59:39;;;;;;;7.63;4.00;;;13.00;99.90;;;;;;5114520;28;20189;-52
2023/01/02 02:02:06;;;;;;;11.68;3.92;;;13.00;99.90;;;;;;5114441;28;20181;-53
2023/01/02 02:04:32;;;;;;;11.40;4.07;;;13.00;99.90;;;;;;5114592;28;20226;-55
2023/01/02 02:06:57;;;;;;;9.55;3.80;;;13.10;99.90;;;;;;5114844;28;20654;-54
2023/01/02 02:09:41;;;;;;;10.13;3.90;;;13.00;99.90;;;;;;5114399;28;20206;-53
2023/01/02 02:12:07;;;;;;;9.38;3.80;;;13.10;99.90;;;;;;5114313;28;20169;-54
2023/01/02 02:14:33;;;;;;;10.23;3.83;;;13.10;99.90;;;;;;5114268;28;20184;-53
2023/01/02 02:17:36;;;;;;;6.30;3.90;;;13.10;99.90;;;;;;5114117;28;20174;-54
2023/01/02 02:20:17;;;;;;;8.50;4.10;;;13.00;99.90;;;;;;5114231;27;20208;-53
2023/01/02 02:23:10;;;;;;;8.77;4.20;;;13.00;99.90;;;;;;5114181;28;20173;-53
2023/01/02 02:26:18;;;;;;;9.57;3.80;;;13.00;99.90;;;;;;5113997;28;20177;-53
2023/01/02 02:28:55;;;;;;;8.95;4.32;;;12.90;99.90;;;;;;5114025;28;20226;-50
2023/01/02 02:31:46;;;;;;;10.40;4.07;;;12.90;99.90;;;;;;5113989;28;20630;-54
2023/01/02 02:34:37;;;;;;;7.80;3.80;;;12.90;99.90;;;;;;5113884;28;20172;-53
2023/01/02 02:37:23;;;;;;;9.38;4.38;;;12.90;99.90;;;;;;5113976;28;20162;-52
2023/01/02 02:40:16;;;;;;;11.85;4.32;;;12.80;99.90;;;;;;5113846;28;20197;-53
2023/01/02 02:43:12;;;;;;;7.68;4.15;;;12.80;99.90;;;;;;5114052;28;20170;-53
2023/01/02 02:46:04;;;;;;;6.10;3.65;;;12.90;99.90;;;;;;5113818;28;20173;-53
2023/01/02 02:48:52;;;;;;;9.45;4.20;;;12.90;99.90;;;;;;5113470;28;20181;-54
2023/01/02 02:51:36;;;;;;;8.32;4.25;;;12.80;99.90;;;;;;5113828;28;20169;-52
2023/01/02 02:54:10;;;;;;;9.70;4.38;;;13.00;99.90;;;;;;5113766;28;20169;-52
2023/01/02 02:56:36;;;;;;;8.07;4.00;;;13.00;99.90;;;;;;5113671;28;20783;-53
2023/01/02 02:59:05;;;;;;;6.85;3.95;;;13.00;99.90;;;;;;5113920;28;20296;-53
2023/01/02 03:01:30;;;;;;;8.88;3.88;;;13.00;99.90;;;;;;5113695;28;20550;-52
2023/01/02 03:03:57;;;;;;;6.38;3.65;;;12.90;99.90;;;;;;5113654;28;20177;-53
2023/01/02 03:07:01;;;;;;;9.98;4.20;;;12.90;99.90;;;;;;5113580;28;20168;-53
2023/01/02 03:09:44;;;;;;;7.47;4.10;;;12.80;99.90;;;;;;5112492;28;20195;-50
2023/01/02 03:12:35;;;;;;;5.78;3.55;;;12.90;99.90;;;;;;5113585;28;20173;-53
2023/01/02 03:15:26;;;;;;;5.95;3.38;;;12.90;99.90;;;;;;5113830;28;20630;-52
2023/01/02 03:18:13;;;;;;;5.82;3.67;;;12.90;99.90;;;;;;5113545;28;20268;-52
2023/01/02 03:20:43;;;;;;;8.60;3.90;;;12.80;99.90;;;;;;5113540;28;20233;-51
2023/01/02 03:23:23;;;;;;;5.00;3.55;;;12.90;99.90;;;;;;5113490;28;20177;-53
2023/01/02 03:25:50;;;;;;;9.95;4.07;;;12.90;99.90;;;;;;5113291;28;20161;-54
2023/01/02 03:28:18;;;;;;;10.35;4.00;;;12.90;99.90;;;;;;5113798;28;20188;-54
2023/01/02 03:30:46;;;;;;;7.30;3.83;;;12.80;99.90;;;;;;5113454;28;20268;-53
2023/01/02 03:33:24;;;;;;;8.52;4.00;;;12.80;99.90;;;;;;5113404;28;20310;-51
2023/01/02 03:35:54;;;;;;;9.15;4.25;;;12.80;99.90;;;;;;5113280;28;20181;-54
2023/01/02 03:38:40;;;;;;;7.80;3.88;;;12.80;99.90;;;;;;5113158;28;20232;-53
2023/01/02 03:41:05;;;;;;;7.60;3.95;;;12.80;99.90;;;;;;5112106;28;20573;-53
2023/01/02 03:43:34;;;;;;;9.35;3.90;;;12.80;99.90;;;;;;5113154;28;20189;-52
2023/01/02 03:46:12;;;;;;;9.10;3.83;;;12.80;99.90;;;;;;5113232;28;20515;-53
2023/01/02 03:49:03;;;;;;;8.82;3.70;;;12.90;99.90;;;;;;5113157;28;20173;-54
2023/01/02 03:51:28;;;;;;;8.40;3.72;;;12.90;99.90;;;;;;5113697;28;20214;-51
2023/01/02 03:53:54;;;;;;;7.70;3.85;;;12.70;99.90;;;;;;5113505;28;20260;-53
2023/01/02 03:56:55;;;;;;;9.23;3.95;;;12.80;99.90;;;;;;5114643;28;20165;-53
2023/01/02 03:59:48;;;;;;;7.72;4.13;;;12.90;99.90;;;;;;5092971;28;20239;-53
2023/01/02 04:02:37;;;;;;;6.75;3.50;;;12.90;99.90;;;;;;5116838;28;20567;-54
2023/01/02 04:05:23;;;;;;;5.78;3.53;;;12.80;99.90;;;;;;5116909;28;20193;-53
2023/01/02 04:08:10;;;;;;;8.23;3.65;;;12.90;99.90;;;;;;5116698;28;20172;-54
2023/01/02 04:10:37;;;;;;;8.27;4.00;;;12.90;99.90;;;;;;5116812;28;20222;-54
2023/01/02 04:13:10;;;;;;;7.38;3.63;;;12.90;99.90;;;;;;5116695;28;20172;-53
2023/01/02 04:15:42;;;;;;;7.00;3.70;;;12.90;99.90;;;;;;5116535;28;20690;-54
2023/01/02 04:18:13;;;;;;;6.68;3.50;;;12.90;99.90;;;;;;5116457;28;20538;-56
2023/01/02 04:20:44;;;;;;;4.93;3.63;;;12.80;99.90;;;;;;5116684;28;20215;-50
2023/01/02 04:23:15;;;;;;;6.60;3.50;;;12.90;99.90;;;;;;5116560;28;20223;-54
2023/01/02 04:25:54;;;;;;;7.72;3.83;;;12.90;99.90;;;;;;5116359;28;20256;-54
2023/01/02 04:28:22;;;;;;;8.40;3.75;;;13.00;99.90;;;;;;5116278;28;20169;-55
2023/01/02 04:30:54;;;;;;;7.30;3.95;;;13.00;99.90;;;;;;5116505;28;20695;-53
2023/01/02 04:33:22;;;;;;;9.32;4.20;;;12.90;99.90;;;;;;5116355;28;20627;-53
2023/01/02 04:35:48;;;;;;;7.78;4.18;;;13.00;99.90;;;;;;5116198;28;20173;-55
2023/01/02 04:38:16;;;;;;;9.63;3.75;;;13.00;99.90;;;;;;5116011;28;20673;-54
2023/01/02 04:40:42;;;;;;;7.60;3.53;;;12.90;99.90;;;;;;5116204;28;20526;-53
2023/01/02 04:43:18;;;;;;;6.35;3.20;;;12.70;99.90;;;;;;5115811;28;20189;-53
2023/01/02 04:45:49;;;;;;;7.13;3.20;;;12.70;99.90;;;;;;5116268;28;20688;-54
2023/01/02 04:48:16;;;;;;;7.40;3.28;;;12.60;99.90;;;;;;5116120;28;20200;-53
2023/01/02 04:50:42;;;;;;;6.38;3.50;;;12.60;99.90;;;;;;5115943;28;20173;-52
2023/01/02 04:53:09;;;;;;;7.90;3.95;;;12.50;99.90;;;;;;5115882;28;20244;-53
2023/01/02 04:55:36;;;;;;;5.40;3.58;;;12.60;99.90;;;;;;5114880;28;20180;-54
2023/01/02 04:58:01;;;;;;;8.23;3.97;;;12.60;99.90;;;;;;5115861;28;20169;-51
2023/01/02 05:00:27;;;;;;;9.68;3.88;;;12.60;99.90;;;;;;5115632;28;20200;-51
2023/01/02 05:02:53;;;;;;;9.90;4.22;;;12.60;99.90;;;;;;5115784;28;20256;-51
2023/01/02 05:05:18;;;;;;;7.35;6.55;;;12.50;99.90;;;;;;5115652;28;20173;-55
2023/01/02 05:07:44;;;;;;;4.50;4.10;;;12.50;99.90;;;;;;5115047;28;20170;-52
2023/01/02 05:10:09;;;;;;;2.20;2.00;;;12.50;99.90;;;;;;5115485;28;20674;-54
2023/01/02 05:12:36;;;;;;;2.78;1.73;;;12.40;99.90;;;;;;5115851;28;20584;-52
2023/01/02 05:15:07;;;;;;;2.10;1.90;;;12.40;99.90;;;;;;5115793;28;20177;-50
2023/01/02 05:17:34;;;;;;;2.90;2.60;;;12.40;99.90;;;;;;5115470;28;20235;-53
2023/01/02 05:20:00;;;;;;;4.70;4.30;;;12.30;99.90;;;;;;5115342;28;20197;-53
2023/01/02 05:25:10;;;;;;;9.95;8.50;;;12.30;99.90;;;;;;5115477;28;20216;-54
2023/01/02 05:27:35;;;;;;;11.55;8.88;;;12.10;99.90;;;;;;5115152;28;20197;-53
2023/01/02 05:30:02;;;;;;;10.40;9.20;;;12.10;99.90;;;;;;5115200;28;20169;-53
2023/01/02 05:32:27;;;;;;;8.90;7.95;;;11.90;99.90;;;;;;5115018;28;20598;-54
2023/01/02 05:34:53;;;;;;;7.57;6.85;;;12.00;99.90;;;;;;5114957;28;20208;-50
2023/01/02 05:37:18;;;;;;;5.90;5.30;;;12.00;99.90;;;;;;5115266;28;20177;-50
2023/01/02 05:39:44;;;;;;;3.90;3.60;;;12.00;99.90;;;;;;5115083;28;20292;-53
2023/01/02 05:42:10;;;;;;;3.20;2.72;;;11.90;99.90;;;;;;5114945;28;20520;-52
2023/01/02 05:44:38;;;;;;;3.33;2.50;;;11.80;99.90;;;;;;5114742;28;20741;-53
2023/01/02 05:47:04;;;;;;;2.47;2.25;;;11.70;99.90;;;;;;5115209;28;20212;-52
2023/01/02 05:49:30;;;;;;;2.70;2.50;;;11.70;99.90;;;;;;5114620;28;20592;-52
2023/01/02 05:51:55;;;;;;;2.67;2.47;;;11.70;99.90;;;;;;5114610;28;20546;-56
2023/01/02 05:54:21;;;;;;;3.28;2.53;;;11.70;99.90;;;;;;5114806;28;20561;-54
2023/01/02 05:56:47;;;;;;;2.58;2.38;;;11.70;99.90;;;;;;5114657;28;20638;-53
2023/01/02 05:59:13;;;;;;;3.55;2.63;;;11.60;99.90;;;;;;5096351;28;20204;-54
2023/01/02 06:01:39;;;;;;;4.68;3.03;;;11.50;99.90;;;;;;5114456;28;20208;-52
2023/01/02 06:04:05;;;;;;;3.40;3.10;;;11.50;99.90;;;;;;5114395;28;20320;-53
2023/01/02 06:06:37;;;;;;;3.55;2.83;;;11.50;99.90;;;;;;5113096;28;20205;-54
2023/01/02 06:09:04;;;;;;;3.13;2.83;;;11.50;99.90;;;;;;5114536;28;20204;-53
2023/01/02 06:11:31;;;;;;;3.70;2.97;;;11.50;99.90;;;;;;5114544;28;20563;-52
2023/01/02 06:13:57;;;;;;;3.45;2.90;;;11.50;99.90;;;;;;5114361;28;20173;-54
2023/01/02 06:16:24;;;;;;;4.22;3.10;;;11.50;99.90;;;;;;5114213;28;20511;-53
2023/01/02 06:18:50;;;;;;;3.13;2.83;;;11.60;99.90;;;;;;5113284;28;20243;-52
2023/01/02 06:21:17;;;;;;;3.65;3.35;;;11.60;99.90;;;;;;5114348;28;20268;-53
2023/01/02 06:23:43;;;;;;;3.55;3.25;;;11.50;99.90;;;;;;5114065;28;20164;-54
2023/01/02 06:26:15;;;;;;;3.67;3.22;;;11.40;99.90;;;;;;5114143;28;20173;-52
2023/01/02 06:28:41;;;;;;;4.30;3.90;;;11.30;99.90;;;;;;5114212;28;20174;-52
2023/01/02 06:31:10;;;;;;;4.93;4.38;;;11.30;99.90;;;;;;5114225;28;20259;-54
2023/01/02 06:33:36;;;;;;;6.50;4.85;;;11.40;99.90;;;;;;5113914;28;20180;-51
2023/01/02 06:36:07;;;;;;;5.68;5.05;;;11.30;99.90;;;;;;5113894;28;20649;-53
2023/01/02 06:38:33;;;;;;;6.10;5.45;;;11.30;99.90;;;;;;5114042;28;20254;-54
2023/01/02 06:41:03;;;;;;;6.63;5.53;;;11.20;99.90;;;;;;5113991;27;20185;-50
2023/01/02 06:43:31;;;;;;;7.32;6.20;;;11.10;99.90;;;;;;5113673;28;20642;-53
2023/01/02 06:46:03;;;;;;;7.78;6.97;;;11.10;99.90;;;;;;5114014;28;20169;-53
2023/01/02 06:48:31;;;;;;;9.40;7.63;;;11.00;99.90;;;;;;5113748;28;20690;-53
2023/01/02 06:50:58;;;;;;;9.63;8.63;;;11.20;99.90;;;;;;5114127;28;20169;-51
2023/01/02 06:53:27;;;;;;;10.18;8.73;;;11.10;99.90;;;;;;5113764;28;20248;-53
2023/01/02 06:55:57;;;;;;;10.13;9.10;;;11.10;99.90;;;;;;5113649;28;20173;-54
2023/01/02 06:58:24;;;;;;;11.73;9.82;;;11.10;99.90;;;;;;5113697;28;20196;-51
2023/01/02 07:00:50;;;;;;;11.68;9.45;;;11.10;99.90;;;;;;5113619;28;20628;-53
2023/01/02 07:03:16;;;;;;;11.98;9.90;;;11.10;99.90;;;;;;5113732;28;20166;-53
2023/01/02 07:05:42;;;;;;;13.25;11.25;;;11.10;99.90;;;;;;5113620;28;20534;-51
2023/01/02 07:08:08;;;;;;;12.93;11.27;;;11.00;99.90;;;;;;5113500;28;20173;-51
2023/01/02 07:10:34;;;;;;;13.90;11.73;;;11.10;99.90;;;;;;5113515;28;20492;-52
2023/01/02 07:13:00;;;;;;;14.20;12.27;;;11.10;99.90;;;;;;5113457;28;20177;-53
2023/01/02 07:15:25;;;;;;;16.33;12.38;;;11.10;99.90;;;;;;5113711;28;20272;-51
2023/01/02 07:17:51;;;;;;;17.30;12.95;;;11.20;99.90;;;;;;5113907;28;20169;-51
2023/01/02 07:20:17;;;;;;;15.05;12.82;;;11.10;99.90;;;;;;5113557;28;20619;-52
2023/01/02 07:22:49;;;;;;;14.73;12.80;;;11.00;99.90;;;;;;5113465;28;20181;-52
2023/01/02 07:25:14;;;;;;;15.77;13.77;;;10.90;99.90;;;;;;5113462;28;20177;-52
2023/01/02 07:27:40;;;;;;;15.18;13.57;;;10.90;99.90;;;;;;5113547;28;20181;-52
2023/01/02 07:30:06;;;;;;;16.63;14.82;;;10.80;99.90;;;;;;5114596;28;20260;-53
2023/01/02 07:32:32;;;;;;;19.50;16.10;;;10.90;99.90;;;;;;5117536;28;20526;-53
2023/01/02 07:34:57;;;;;;;17.50;15.25;;;10.90;99.90;;;;;;5117426;28;20191;-52
2023/01/02 07:37:23;;;;;;;18.95;16.38;;;10.90;99.90;;;;;;5117369;28;20306;-52
2023/01/02 07:39:49;;;;;;;18.55;14.88;;;10.80;99.90;;;;;;5117204;28;20688;-52
2023/01/02 07:42:14;;;;;;;17.80;15.90;;;10.80;99.90;;;;;;5117062;28;20534;-53
2023/01/02 07:44:40;;;;;;;16.92;15.00;;;10.80;99.90;;;;;;5117037;28;20531;-53
2023/01/02 07:47:05;;;;;;;17.15;14.95;;;10.90;99.90;;;;;;5117282;28;20640;-51
2023/01/02 07:49:31;;;;;;;18.95;15.80;;;10.80;99.90;;;;;;5117179;28;20661;-52
2023/01/02 07:51:57;;;;;;;17.98;15.38;;;10.80;99.90;;;;;;5117015;28;20699;-50
2023/01/02 07:54:22;;;;;;;19.40;16.33;;;10.80;99.90;;;;;;5116966;28;20178;-52
2023/01/02 07:56:51;;;;;;;19.33;16.15;;;10.70;99.90;;;;;;5116997;28;20203;-53
2023/01/02 07:59:16;;;;;;;20.15;16.52;;;10.80;99.90;;;;;;5116983;27;20208;-52
2023/01/02 08:01:42;;;;;;;18.48;16.05;;;10.70;99.90;;;;;;5116774;28;20265;-53
2023/01/02 08:04:08;;;;;;;17.33;15.23;;;10.70;99.90;;;;;;5116836;28;20182;-54
2023/01/02 08:06:34;;;;;;;18.25;16.02;;;10.70;99.90;;;;;;5116180;28;20181;-54
2023/01/02 08:09:00;;;;;;;18.88;16.05;;;10.70;99.90;;;;;;5116287;28;20180;-54
2023/01/02 08:11:25;;;;;;;19.85;16.75;;;10.60;99.90;;;;;;5116377;28;20185;-54
2023/01/02 08:13:51;;;;;;;21.45;16.95;;;10.60;99.90;;;;;;5116748;28;20187;-54
2023/01/02 08:16:19;;;;;;;18.73;16.67;;;10.70;99.90;;;;;;5115218;28;20540;-55
2023/01/02 08:18:45;;;;;;;22.17;18.60;;;10.70;99.90;;;;;;5115983;28;20595;-54
2023/01/02 08:21:12;;;;;;;19.88;17.80;;;10.70;99.90;;;;;;5116242;28;20643;-57
2023/01/02 08:23:38;;;;;;;24.40;18.23;;;10.70;99.90;;;;;;5115580;27;20254;-55
2023/01/02 08:26:06;;;;;;;20.50;17.10;;;10.70;99.90;;;;;;5116343;28;20176;-57
2023/01/02 08:28:34;;;;;;;20.40;17.95;;;10.70;99.90;;;;;;5116379;28;20177;-51
2023/01/02 08:31:00;;;;;;;18.17;15.85;;;10.70;99.90;;;;;;5116489;28;20253;-53
2023/01/02 08:33:26;;;;;;;16.27;14.63;;;10.60;99.90;;;;;;5116558;28;20203;-52
2023/01/02 08:35:52;;;;;;;17.52;14.98;;;10.70;99.90;;;;;;5116301;28;20183;-52
2023/01/02 08:38:18;;;;;;;16.17;14.48;;;10.70;99.90;;;;;;5114782;28;20288;-54
2023/01/02 08:40:44;;;;;;;17.23;15.38;;;10.70;99.90;;;;;;5116191;28;20268;-53
2023/01/02 08:43:13;;;;;;;16.70;14.50;;;10.70;99.90;;;;;;5115399;28;20598;-53
2023/01/02 08:45:39;;;;;;;15.45;13.85;;;10.70;99.90;;;;;;5115380;28;20173;-53
2023/01/02 08:48:04;;;;;;;15.45;13.88;;;10.60;99.90;;;;;;5114861;28;20175;-51
2023/01/02 08:50:30;;;;;;;14.95;13.13;;;10.70;99.90;;;;;;5115998;28;20248;-53
2023/01/02 08:52:55;;;;;;;12.30;10.98;;;10.60;99.90;;;;;;5115733;28;20181;-52
2023/01/02 08:55:21;;;;;;;12.13;10.90;;;10.50;99.90;;;;;;5116391;28;20694;-53
2023/01/02 08:57:47;;;;;;;13.43;10.82;;;10.60;99.90;;;;;;5114552;28;20184;-53
2023/01/02 09:00:13;;;;;;;11.02;9.82;;;10.80;99.90;;;;;;5115821;28;20685;-53
2023/01/02 09:02:38;;;;;;;10.30;9.30;;;10.80;99.90;;;;;;5115793;28;20204;-52
2023/01/02 09:05:04;;;;;;;11.48;9.65;;;10.80;99.90;;;;;;5115764;28;20212;-52
2023/01/02 09:07:31;;;;;;;12.80;9.98;;;10.70;99.90;;;;;;5114332;28;20173;-54
2023/01/02 09:09:57;;;;;;;10.25;9.20;;;10.70;99.90;;;;;;5115694;27;20208;-51
2023/01/02 09:12:23;;;;;;;11.02;9.10;;;10.60;99.90;;;;;;5115633;28;20227;-55
2023/01/02 09:14:49;;;;;;;12.80;9.32;;;10.50;99.90;;;;;;5115658;28;20215;-53
2023/01/02 09:17:15;;;;;;;12.80;9.38;;;10.60;99.90;;;;;;5115637;28;20192;-54
2023/01/02 09:19:41;;;;;;;12.10;9.40;;;10.60;99.90;;;;;;5115215;28;20681;-53
2023/01/02 09:22:08;;;;;;;11.18;9.50;;;10.60;99.90;;;;;;5113742;28;20201;-53
2023/01/02 09:24:34;;;;;;;11.77;8.52;;;10.50;99.90;;;;;;5114041;28;20576;-53
2023/01/02 09:26:59;;;;;;;10.63;9.10;;;10.60;99.90;;;;;;5115307;28;20169;-53
2023/01/02 09:29:25;;;;;;;10.43;9.20;;;10.50;99.90;;;;;;5115180;28;20260;-57
2023/01/02 09:31:51;;;;;;;10.65;9.10;;;10.50;99.90;;;;;;5114605;28;20176;-55
2023/01/02 09:34:16;;;;;;;12.52;9.73;;;10.60;99.90;;;;;;5096828;28;20161;-53
2023/01/02 09:36:42;;;;;;;10.57;8.77;;;10.60;99.90;;;;;;5114611;28;20242;-55
2023/01/02 09:39:08;;;;;;;12.57;9.80;;;10.70;99.90;;;;;;5114062;27;20691;-55
2023/01/02 09:41:38;;;;;;;15.73;10.60;;;10.70;99.90;;;;;;5113554;28;20181;-54
2023/01/02 09:44:10;;;;;;;12.60;10.18;;;10.60;99.90;;;;;;5115000;28;20733;-53
2023/01/02 09:46:47;;;;;;;12.32;9.85;;;10.70;99.90;;;;;;5114787;28;20180;-56
2023/01/02 09:49:23;;;;;;;11.48;9.65;;;10.70;99.90;;;;;;5114874;27;20248;-53
2023/01/02 09:51:49;;;;;;;15.50;10.43;;;10.70;99.90;;;;;;5114947;28;20165;-53
2023/01/02 09:54:27;;;;;;;12.32;10.13;;;10.80;99.90;;;;;;5114757;28;20528;-51
2023/01/02 09:57:22;;;;;;;12.18;9.40;;;10.80;99.90;;;;;;5114824;28;20175;-55
2023/01/02 10:00:15;;;;;;;13.02;9.70;;;10.90;99.90;;;;;;5114399;28;20189;-54
2023/01/02 10:03:10;;;;;;;12.57;9.10;;;10.90;99.90;;;;;;5114424;28;20673;-52
2023/01/02 10:05:53;;;;;;;11.95;8.75;;;11.00;99.90;;;;;;5114391;28;20695;-54
2023/01/02 10:08:57;;;;;;;10.93;8.55;;;11.00;99.90;;;;;;5114596;28;20645;-55
2023/01/02 10:11:32;;;;;;;11.77;9.32;;;10.90;99.90;;;;;;5114530;28;20627;-55
2023/01/02 10:14:07;;;;;;;10.50;7.95;;;11.00;99.90;;;;;;5114349;28;20181;-55
2023/01/02 10:16:40;;;;;;;10.35;8.10;;;11.10;99.90;;;;;;5114571;28;20638;-54
2023/01/02 10:19:27;;;;;;;11.43;8.57;;;11.10;99.90;;;;;;5114232;28;20313;-54
2023/01/02 10:21:57;;;;;;;10.52;8.95;;;11.10;99.90;;;;;;5114214;28;20592;-53
2023/01/02 10:24:47;;;;;;;11.73;8.05;;;11.20;99.90;;;;;;5114149;28;20212;-54
2023/01/02 10:27:19;;;;;;;9.82;8.27;;;11.20;99.90;;;;;;5113935;28;20169;-53
2023/01/02 10:29:52;;;;;;;10.98;8.88;;;11.20;99.90;;;;;;5112276;28;20575;-55
2023/01/02 10:32:20;;;;;;;9.75;8.75;;;11.40;99.90;;;;;;5112047;28;20161;-53
2023/01/02 10:35:02;;;;;;;11.63;8.77;;;11.60;99.90;;;;;;5111835;28;20664;-51
2023/01/02 10:37:28;;;;;;;8.77;7.80;;;11.50;99.90;;;;;;5111942;28;20534;-56
2023/01/02 10:39:54;;;;;;;9.32;8.02;;;11.40;99.90;;;;;;5112293;28;20696;-55
2023/01/02 10:42:20;;;;;;;9.45;7.68;;;11.40;99.90;;;;;;5113915;28;20173;-52
2023/01/02 10:44:46;;;;;;;8.35;7.28;;;11.50;99.90;;;;;;5113665;28;20276;-50
2023/01/02 10:47:31;;;;;;;7.50;6.80;;;11.50;99.90;;;;;;5112114;28;20268;-56
2023/01/02 10:49:57;;;;;;;9.57;6.80;;;11.40;99.90;;;;;;5114023;28;20177;-52
2023/01/02 10:52:49;;;;;;;7.28;6.55;;;11.40;99.90;;;;;;5113990;28;20169;-54
2023/01/02 10:55:29;;;;;;;8.57;6.30;;;11.40;99.90;;;;;;5105776;28;20249;-52
2023/01/02 10:58:02;;;;;;;6.90;5.78;;;11.50;99.90;;;;;;5113641;28;20636;-52
2023/01/02 11:00:30;;;;;;;7.13;5.78;;;11.40;99.90;;;;;;5113946;28;20242;-51
2023/01/02 11:03:05;;;;;;;6.10;5.25;;;11.40;99.90;;;;;;5113796;28;20177;-52
2023/01/02 11:05:34;;;;;;;6.78;4.50;;;11.30;99.90;;;;;;5117856;28;20164;-52
2023/01/02 11:08:11;;;;;;;5.93;4.57;;;11.20;99.90;;;;;;5120450;27;20618;-50
2023/01/02 11:10:37;;;;;;;5.38;4.88;;;11.30;99.90;;;;;;5120424;27;20522;-53
2023/01/02 11:13:09;;;;;;;5.60;4.68;;;11.20;99.90;;;;;;5120508;27;20173;-51
2023/01/02 11:15:54;;;;;;;9.10;4.82;;;11.30;99.90;;;;;;5120494;27;20196;-52
2023/01/02 11:18:26;;;;;;;4.97;4.28;;;11.20;99.90;;;;;;5120341;27;20184;-50
2023/01/02 11:20:55;;;;;;;5.55;4.22;;;11.40;99.90;;;;;;5120312;27;20640;-52
2023/01/02 11:23:24;;;;;;;7.80;4.60;;;11.40;99.90;;;;;;5120458;27;20180;-52
2023/01/02 11:25:52;;;;;;;5.85;4.35;;;11.40;99.90;;;;;;5120392;27;20173;-52
2023/01/02 11:28:25;;;;;;;4.22;3.75;;;11.40;99.90;;;;;;5120256;27;20622;-53
2023/01/02 11:30:53;;;;;;;4.05;3.65;;;11.40;99.90;;;;;;5120283;27;20245;-49
2023/01/02 11:33:27;;;;;;;5.18;3.42;;;11.40;99.90;;;;;;5120095;27;20633;-55
2023/01/02 11:35:57;;;;;;;6.60;4.15;;;11.40;99.90;;;;;;5120431;27;20195;-50
2023/01/02 11:38:26;;;;;;;7.30;4.20;;;11.40;99.90;;;;;;5120212;28;20169;-53
2023/01/02 11:41:03;;;;;;;6.72;4.10;;;11.50;99.90;;;;;;5120212;28;20178;-53
2023/01/02 11:43:50;;;;;;;7.07;4.30;;;11.70;99.90;;;;;;5120269;27;20218;-54
2023/01/02 11:46:26;;;;;;;7.25;4.25;;;11.70;99.90;;;;;;5120222;27;20169;-52
2023/01/02 11:48:57;;;;;;;5.45;4.00;;;11.80;99.90;;;;;;5120189;27;20576;-52
2023/01/02 11:51:23;;;;;;;8.00;4.28;;;11.80;99.90;;;;;;5120199;27;20188;-54
2023/01/02 11:53:52;;;;;;;7.40;3.92;;;11.80;99.90;;;;;;5119877;27;20242;-51
2023/01/02 11:56:29;;;;;;;5.90;4.00;;;11.80;99.90;;;;;;5119795;27;20638;-52
2023/01/02 11:59:04;;;;;;;4.05;3.42;;;11.80;99.90;;;;;;5120224;27;20205;-53
2023/01/02 12:01:46;;;;;;;6.95;3.85;;;11.80;99.90;;;;;;5119959;27;20633;-52
2023/01/02 12:04:13;;;;;;;6.43;3.90;;;11.80;99.90;;;;;;5119894;27;20172;-52
2023/01/02 12:07:04;;;;;;;8.38;3.53;;;11.80;99.90;;;;;;5119454;27;20185;-53
2023/01/02 12:09:55;;;;;;;4.80;3.20;;;11.70;99.90;;;;;;5120086;27;20173;-53
2023/01/02 12:12:33;;;;;;;6.30;3.53;;;11.70;99.90;;;;;;5119927;27;20169;-51
2023/01/02 12:15:33;;;;;;;4.97;3.13;;;11.80;99.90;;;;;;5119811;28;20177;-54
2023/01/02 12:18:25;;;;;;;6.72;3.42;;;11.70;99.90;;;;;;5115432;28;20174;-52
2023/01/02 12:21:04;;;;;;;6.13;3.70;;;11.70;99.90;;;;;;5116709;28;20638;-53
2023/01/02 12:24:05;;;;;;;4.50;3.55;;;11.50;99.90;;;;;;5116545;28;20653;-51
2023/01/02 12:26:40;;;;;;;5.15;3.10;;;11.40;99.90;;;;;;5105538;28;20242;-52
2023/01/02 12:29:24;;;;;;;6.45;3.75;;;11.40;99.90;;;;;;5115405;28;20541;-53
2023/01/02 12:32:09;;;;;;;4.18;3.40;;;11.30;99.90;;;;;;5116311;28;20170;-52
2023/01/02 12:35:08;;;;;;;4.70;3.00;;;11.40;99.90;;;;;;5116442;28;20176;-49
2023/01/02 12:37:54;;;;;;;4.30;2.53;;;11.40;99.90;;;;;;5116190;28;20174;-50
2023/01/02 12:40:46;;;;;;;3.58;2.55;;;11.50;99.90;;;;;;5116342;28;20200;-50
2023/01/02 12:43:29;;;;;;;4.70;2.72;;;11.60;99.90;;;;;;5116359;28;20185;-53
2023/01/02 12:46:13;;;;;;;2.92;2.17;;;11.50;99.90;;;;;;5115974;28;20165;-50
2023/01/02 12:49:17;;;;;;;3.45;2.35;;;11.40;99.90;;;;;;5116216;28;20176;-54
2023/01/02 12:51:51;;;;;;;4.90;2.67;;;11.30;99.90;;;;;;5092235;28;20180;-53
2023/01/02 12:54:43;;;;;;;3.85;2.50;;;11.30;99.90;;;;;;5115977;28;20168;-53
2023/01/02 12:57:08;;;;;;;3.20;2.60;;;11.40;99.90;;;;;;5116073;28;20250;-51
2023/01/02 12:59:40;;;;;;;3.67;2.30;;;11.50;99.90;;;;;;5115797;28;20212;-52
2023/01/02 13:02:14;;;;;;;4.00;2.63;;;11.50;99.90;;;;;;5115820;28;20189;-54
2023/01/02 13:04:50;;;;;;;5.18;2.15;;;11.50;99.90;;;;;;5115741;28;20181;-49
2023/01/02 13:07:33;;;;;;;3.90;2.30;;;11.40;99.90;;;;;;5115859;28;20157;-52